createdAt,value
2023-03-23T15:58:35.536Z,9.54
2023-03-23T16:01:08.223Z,10.89
2023-03-23T16:03:39.145Z,9.31
2023-03-23T16:06:06.194Z,9.37
2023-03-23T16:08:32.721Z,9.81
2023-03-23T16:11:00.360Z,9.79
2023-03-23T16:13:28.442Z,9.51
2023-03-23T16:15:55.522Z,10.13
2023-03-23T16:18:22.738Z,9.68
2023-03-23T16:20:50.408Z,9.68
2023-03-23T16:23:17.447Z,9.38
2023-03-23T16:25:44.582Z,10.40
2023-03-23T16:28:13.018Z,9.78
2023-03-23T16:30:41.060Z,9.15
2023-03-23T16:33:08.540Z,8.98
2023-03-23T16:35:35.855Z,9.29
2023-03-23T16:38:06.957Z,9.39
2023-03-23T16:40:35.778Z,9.29
2023-03-23T16:43:02.309Z,9.02
2023-03-23T16:45:36.092Z,9.01
2023-03-23T16:48:02.655Z,9.85
2023-03-23T16:50:29.941Z,10.16
2023-03-23T16:52:57.183Z,11.30
2023-03-23T16:55:26.156Z,11.36
2023-03-23T16:57:58.182Z,11.26
2023-03-23T17:00:33.166Z,11.96
2023-03-23T17:03:00.203Z,10.29
2023-03-23T17:05:28.395Z,9.70
2023-03-23T17:07:56.019Z,10.17
2023-03-23T17:10:24.391Z,9.03
2023-03-23T17:12:51.071Z,8.49
2023-03-23T17:15:17.989Z,9.75
2023-03-23T17:17:44.795Z,9.96
2023-03-23T17:20:12.247Z,9.52
2023-03-23T17:22:40.232Z,9.74
2023-03-23T17:25:08.393Z,9.37
2023-03-23T17:27:36.377Z,9.43
2023-03-23T17:30:04.450Z,9.51
2023-03-23T17:32:31.233Z,10.36
2023-03-23T17:34:58.115Z,8.29
2023-03-23T17:37:25.497Z,8.31
2023-03-23T17:39:52.851Z,8.30
2023-03-23T17:42:19.507Z,9.65
2023-03-23T17:44:46.212Z,10.68
2023-03-23T17:47:12.947Z,9.75
2023-03-23T17:49:39.718Z,9.56
2023-03-23T17:52:06.619Z,9.45
2023-03-23T17:54:33.175Z,10.90
2023-03-23T17:57:00.999Z,10.08
2023-03-23T17:59:29.531Z,10.08
2023-03-23T18:01:56.553Z,8.44
2023-03-23T18:04:23.241Z,9.85
2023-03-23T18:06:49.923Z,9.99
2023-03-23T18:09:16.805Z,10.71
2023-03-23T18:11:43.418Z,10.87
2023-03-23T18:14:10.268Z,10.94
2023-03-23T18:16:37.124Z,10.87
2023-03-23T18:19:03.718Z,10.16
2023-03-23T18:21:30.497Z,10.51
2023-03-23T18:23:59.898Z,10.46
2023-03-23T18:26:27.203Z,10.17
2023-03-23T18:28:54.084Z,9.82
2023-03-23T18:31:21.658Z,9.06
2023-03-23T18:33:49.809Z,10.53
2023-03-23T18:36:18.122Z,10.03
2023-03-23T18:38:48.802Z,9.63
2023-03-23T18:41:16.870Z,10.31
2023-03-23T18:43:43.708Z,12.80
2023-03-23T18:46:10.274Z,10.09
2023-03-23T18:48:37.597Z,9.65
2023-03-23T18:51:04.550Z,8.67
2023-03-23T18:53:31.303Z,8.15
2023-03-23T18:56:08.984Z,7.72
2023-03-23T18:58:35.936Z,7.46
2023-03-23T19:01:04.522Z,7.86
2023-03-23T19:03:31.314Z,6.81
2023-03-23T19:05:59.761Z,6.45
2023-03-23T19:08:27.606Z,5.62
2023-03-23T19:11:00.075Z,5.55
2023-03-23T19:13:27.849Z,6.35
2023-03-23T19:15:54.842Z,5.32
2023-03-23T19:18:22.435Z,5.64
2023-03-23T19:23:21.052Z,5.54
2023-03-23T19:25:47.885Z,5.89
2023-03-23T19:30:49.195Z,5.73
2023-03-23T19:33:16.571Z,5.33
2023-03-23T19:35:44.540Z,5.41
2023-03-23T19:38:11.586Z,5.21
2023-03-23T19:40:42.086Z,5.14
2023-03-23T19:43:09.711Z,4.99
2023-03-23T19:45:37.028Z,5.19
2023-03-23T19:48:04.179Z,5.04
2023-03-23T19:50:31.735Z,4.99
2023-03-23T19:53:00.076Z,5.38
2023-03-23T19:55:27.294Z,6.46
2023-03-23T19:57:54.057Z,5.30
2023-03-23T20:00:20.806Z,5.26
2023-03-23T20:02:49.721Z,5.53
2023-03-23T20:05:16.602Z,5.14
2023-03-23T20:07:46.444Z,5.05
2023-03-23T20:10:16.940Z,5.27
2023-03-23T20:12:43.795Z,4.98
2023-03-23T20:15:10.435Z,5.51
2023-03-23T20:17:37.538Z,5.13
2023-03-23T20:20:10.332Z,5.42
2023-03-23T20:22:37.612Z,5.73
2023-03-23T20:25:04.565Z,5.55
2023-03-23T20:27:32.365Z,5.15
2023-03-23T20:29:59.199Z,5.19
2023-03-23T20:32:26.137Z,5.30
2023-03-23T20:34:52.737Z,5.41
2023-03-23T20:37:20.763Z,5.68
2023-03-23T20:39:48.867Z,6.16
2023-03-23T20:42:16.947Z,6.19
2023-03-23T20:44:43.929Z,6.44
2023-03-23T20:47:10.746Z,6.23
2023-03-23T20:49:38.437Z,6.37
2023-03-23T20:52:06.887Z,6.72
2023-03-23T20:54:33.424Z,7.15
2023-03-23T20:57:00.430Z,7.33
2023-03-23T20:59:28.208Z,7.61
2023-03-23T21:01:55.524Z,7.22
2023-03-23T21:04:27.272Z,7.67
2023-03-23T21:06:54.736Z,7.70
2023-03-23T21:09:22.426Z,7.79
2023-03-23T21:11:49.707Z,7.90
2023-03-23T21:14:16.828Z,7.77
2023-03-23T21:16:43.841Z,8.20
2023-03-23T21:19:11.917Z,7.40
2023-03-23T21:21:55.742Z,7.99
2023-03-23T21:24:26.539Z,7.60
2023-03-23T21:26:54.184Z,7.56
2023-03-23T21:29:22.271Z,7.88
2023-03-23T21:31:55.014Z,7.30
2023-03-23T21:34:32.264Z,7.63
2023-03-23T21:36:59.122Z,7.60
2023-03-23T21:39:26.361Z,7.06
2023-03-23T21:41:52.969Z,7.10
2023-03-23T21:44:19.426Z,7.09
2023-03-23T21:46:46.029Z,6.86
2023-03-23T21:49:16.191Z,7.23
2023-03-23T21:51:43.521Z,7.20
2023-03-23T21:54:10.649Z,6.68
2023-03-23T21:56:37.645Z,6.69
2023-03-23T21:59:04.872Z,6.95
2023-03-23T22:01:31.709Z,6.32
2023-03-23T22:03:58.368Z,6.17
2023-03-23T22:06:28.243Z,6.04
2023-03-23T22:08:55.415Z,6.25
2023-03-23T22:11:24.710Z,5.64
2023-03-23T22:13:52.862Z,6.49
2023-03-23T22:16:20.751Z,6.08
2023-03-23T22:18:48.292Z,6.43
2023-03-23T22:21:16.244Z,6.39
2023-03-23T22:23:43.815Z,6.50
2023-03-23T22:26:12.227Z,6.13
2023-03-23T22:28:39.874Z,6.01
2023-03-23T22:31:08.714Z,5.67
2023-03-23T22:33:36.868Z,5.68
2023-03-23T22:36:06.392Z,5.82
2023-03-23T22:38:33.828Z,5.31
2023-03-23T22:41:02.888Z,5.17
2023-03-23T22:43:29.649Z,5.12
2023-03-23T22:45:56.624Z,5.16
2023-03-23T22:48:25.740Z,4.92
2023-03-23T22:50:52.343Z,5.22
2023-03-23T22:53:19.563Z,5.14
2023-03-23T22:55:51.088Z,5.17
2023-03-23T22:58:18.377Z,5.38
2023-03-23T23:00:47.314Z,5.38
2023-03-23T23:03:14.081Z,5.49
2023-03-23T23:05:42.163Z,5.11
2023-03-23T23:08:13.289Z,5.15
2023-03-23T23:10:41.775Z,4.96
2023-03-23T23:13:09.444Z,4.86
2023-03-23T23:15:36.884Z,4.99
2023-03-23T23:18:05.003Z,4.98
2023-03-23T23:20:33.368Z,5.28
2023-03-23T23:23:01.097Z,5.40
2023-03-23T23:25:28.836Z,5.84
2023-03-23T23:27:56.128Z,5.50
2023-03-23T23:30:22.963Z,5.70
2023-03-23T23:32:49.775Z,5.69
2023-03-23T23:35:16.789Z,5.66
2023-03-23T23:37:43.500Z,5.50
2023-03-23T23:40:11.158Z,5.36
2023-03-23T23:42:37.727Z,5.01
2023-03-23T23:45:04.435Z,5.32
2023-03-23T23:47:31.016Z,5.49
2023-03-23T23:49:57.585Z,5.15
2023-03-23T23:52:24.443Z,5.32
2023-03-23T23:54:52.623Z,5.19
2023-03-23T23:57:19.188Z,5.40
2023-03-23T23:59:45.786Z,5.51
